createdAt,value
2018-11-23T00:01:58.013Z,2.88
2018-11-23T00:04:00.934Z,2.92
2018-11-23T00:06:04.169Z,2.94
2018-11-23T00:08:07.134Z,3.00
2018-11-23T00:10:12.205Z,2.97
2018-11-23T00:12:15.117Z,2.89
2018-11-23T00:14:18.058Z,2.91
2018-11-23T00:16:20.968Z,2.87
2018-11-23T00:18:23.914Z,2.74
2018-11-23T00:20:28.029Z,2.89
2018-11-23T00:22:30.934Z,2.81
2018-11-23T00:24:33.885Z,2.98
2018-11-23T00:26:36.809Z,2.86
2018-11-23T00:28:39.774Z,2.71
2018-11-23T00:30:42.695Z,2.77
2018-11-23T00:32:46.009Z,2.80
2018-11-23T00:34:48.949Z,2.78
2018-11-23T00:36:52.199Z,2.78
2018-11-23T00:38:55.177Z,2.77
2018-11-23T00:40:58.450Z,2.94
2018-11-23T00:43:01.481Z,2.86
2018-11-23T00:45:06.550Z,2.76
2018-11-23T00:47:09.508Z,2.77
2018-11-23T00:49:12.398Z,2.80
2018-11-23T00:51:15.337Z,2.74
2018-11-23T00:53:18.257Z,2.73
2018-11-23T00:55:22.034Z,2.79
2018-11-23T00:57:25.021Z,2.79
2018-11-23T00:59:28.018Z,2.84
2018-11-23T01:01:36.690Z,2.73
2018-11-23T01:03:39.681Z,2.64
2018-11-23T01:05:42.664Z,2.65
2018-11-23T01:07:46.401Z,2.74
2018-11-23T01:09:49.405Z,2.76
2018-11-23T01:11:53.407Z,2.58
2018-11-23T01:14:02.541Z,2.82
2018-11-23T01:16:12.010Z,2.78
2018-11-23T01:18:21.145Z,2.75
2018-11-23T01:20:30.182Z,2.79
2018-11-23T01:22:40.110Z,2.83
2018-11-23T01:24:49.466Z,2.77
2018-11-23T01:26:58.726Z,2.68
2018-11-23T01:29:07.874Z,2.65
2018-11-23T01:31:16.857Z,2.67
2018-11-23T01:33:26.066Z,2.91
2018-11-23T01:35:35.320Z,2.78
2018-11-23T01:37:44.389Z,2.82
2018-11-23T01:39:53.649Z,2.80
2018-11-23T01:42:03.193Z,2.83
2018-11-23T01:44:12.245Z,2.72
2018-11-23T01:46:21.322Z,2.74
2018-11-23T01:48:30.521Z,2.71
2018-11-23T01:50:39.555Z,2.60
2018-11-23T01:52:49.322Z,2.58
2018-11-23T01:54:58.420Z,2.49
2018-11-23T01:57:07.375Z,2.64
2018-11-23T01:59:16.525Z,2.68
2018-11-23T02:01:25.709Z,2.75
2018-11-23T02:03:34.843Z,2.74
2018-11-23T02:05:44.384Z,2.75
2018-11-23T02:07:53.507Z,2.72
2018-11-23T02:10:02.700Z,2.74
2018-11-23T02:12:11.871Z,2.92
2018-11-23T02:14:21.077Z,2.86
2018-11-23T02:16:29.977Z,2.68
2018-11-23T02:18:39.040Z,2.74
2018-11-23T02:20:48.161Z,2.71
2018-11-23T02:22:57.394Z,2.83
2018-11-23T02:25:06.694Z,2.69
2018-11-23T02:27:16.176Z,2.77
2018-11-23T02:29:25.272Z,2.79
2018-11-23T02:31:36.773Z,2.76
2018-11-23T02:33:45.894Z,2.80
2018-11-23T02:35:55.005Z,2.72
2018-11-23T02:38:04.108Z,2.81
2018-11-23T02:40:14.598Z,2.79
2018-11-23T02:42:23.836Z,2.63
2018-11-23T02:44:32.872Z,2.79
2018-11-23T02:46:42.009Z,2.70
2018-11-23T02:48:50.985Z,2.76
2018-11-23T02:51:00.208Z,2.77
2018-11-23T02:53:09.283Z,2.70
2018-11-23T02:55:19.153Z,2.79
2018-11-23T02:57:28.319Z,2.79
2018-11-23T02:59:37.419Z,2.72
2018-11-23T03:01:46.503Z,2.65
2018-11-23T03:03:55.480Z,2.65
2018-11-23T03:06:04.545Z,2.74
2018-11-23T03:08:13.542Z,2.85
2018-11-23T03:10:22.779Z,2.77
2018-11-23T03:12:31.863Z,2.79
2018-11-23T03:14:40.844Z,2.92
2018-11-23T03:16:50.034Z,2.95
2018-11-23T03:18:58.969Z,3.03
2018-11-23T03:21:08.017Z,2.99
2018-11-23T03:23:17.180Z,3.00
2018-11-23T03:25:26.217Z,2.84
2018-11-23T03:27:35.244Z,2.81
2018-11-23T03:29:44.349Z,2.96
2018-11-23T03:31:53.672Z,2.75
2018-11-23T03:34:02.737Z,2.73
2018-11-23T03:36:11.818Z,2.93
2018-11-23T03:38:21.055Z,2.94
2018-11-23T03:40:30.036Z,2.89
2018-11-23T03:42:39.220Z,2.75
2018-11-23T03:44:48.439Z,3.03
2018-11-23T03:46:57.727Z,2.90
2018-11-23T03:49:06.728Z,2.91
2018-11-23T03:51:16.215Z,3.01
2018-11-23T03:53:25.252Z,2.89
2018-11-23T03:55:34.265Z,3.06
2018-11-23T03:57:43.587Z,3.00
2018-11-23T03:59:52.653Z,2.93
2018-11-23T04:02:01.740Z,3.02
2018-11-23T04:04:10.827Z,2.85
2018-11-23T04:06:19.976Z,2.92
2018-11-23T04:08:29.003Z,2.93
2018-11-23T04:10:38.172Z,2.97
2018-11-23T04:12:47.688Z,2.80
2018-11-23T04:14:56.796Z,2.87
2018-11-23T04:17:05.913Z,2.84
2018-11-23T04:19:15.068Z,2.94
2018-11-23T04:21:24.276Z,2.93
2018-11-23T04:23:33.632Z,2.85
2018-11-23T04:25:43.064Z,2.83
2018-11-23T04:27:52.309Z,2.84
2018-11-23T04:30:01.330Z,2.91
2018-11-23T04:32:10.755Z,2.98
2018-11-23T04:34:19.883Z,3.08
2018-11-23T04:36:29.007Z,3.01
2018-11-23T04:38:38.255Z,2.93
2018-11-23T04:40:47.308Z,2.93
2018-11-23T04:42:57.024Z,3.00
2018-11-23T04:45:06.726Z,3.02
2018-11-23T04:47:15.936Z,3.03
2018-11-23T04:49:25.088Z,3.00
2018-11-23T04:51:34.195Z,2.87
2018-11-23T04:53:43.380Z,2.91
2018-11-23T04:55:52.727Z,2.95
2018-11-23T04:58:01.895Z,3.05
2018-11-23T05:00:14.048Z,2.87
2018-11-23T05:02:23.309Z,2.97
2018-11-23T05:04:32.412Z,2.91
2018-11-23T05:06:41.862Z,2.91
2018-11-23T05:08:50.984Z,2.92
2018-11-23T05:11:00.074Z,2.95
2018-11-23T05:13:09.274Z,2.89
2018-11-23T05:15:19.029Z,2.83
2018-11-23T05:17:28.132Z,2.93
2018-11-23T05:19:37.121Z,2.90
2018-11-23T05:21:46.447Z,2.98
2018-11-23T05:23:55.656Z,3.04
2018-11-23T05:26:05.491Z,3.07
2018-11-23T05:28:14.566Z,3.00
2018-11-23T05:30:23.494Z,2.96
2018-11-23T05:32:32.872Z,3.07
2018-11-23T05:34:42.083Z,3.08
2018-11-23T05:36:51.277Z,3.00
2018-11-23T05:39:00.355Z,2.92
2018-11-23T05:41:09.477Z,2.94
2018-11-23T05:43:18.591Z,3.00
2018-11-23T05:45:27.769Z,3.08
2018-11-23T05:47:37.104Z,3.01
2018-11-23T05:49:46.190Z,3.12
2018-11-23T05:51:55.371Z,3.12
2018-11-23T05:54:04.761Z,2.89
2018-11-23T05:56:14.007Z,3.03
2018-11-23T05:58:23.145Z,3.11
2018-11-23T06:00:32.955Z,3.04
2018-11-23T06:02:42.397Z,3.03
2018-11-23T06:04:51.609Z,3.07
2018-11-23T06:07:00.748Z,3.16
2018-11-23T06:09:09.970Z,3.17
2018-11-23T06:11:19.279Z,3.19
2018-11-23T06:13:28.380Z,3.10
2018-11-23T06:15:40.443Z,3.01
2018-11-23T06:17:47.415Z,3.10
2018-11-23T06:19:56.737Z,3.13
2018-11-23T06:22:05.982Z,3.01
2018-11-23T06:24:15.181Z,3.11
2018-11-23T06:26:26.454Z,3.09
2018-11-23T06:28:35.646Z,2.95
2018-11-23T06:30:44.835Z,2.94
2018-11-23T06:33:11.389Z,3.07
2018-11-23T06:35:20.505Z,3.08
2018-11-23T06:37:29.622Z,2.90
2018-11-23T06:39:38.934Z,3.03
2018-11-23T06:41:48.155Z,3.06
2018-11-23T06:43:57.469Z,3.14
2018-11-23T06:46:08.845Z,2.96
2018-11-23T06:48:17.895Z,3.22
2018-11-23T06:50:27.120Z,3.19
2018-11-23T06:52:36.587Z,3.11
2018-11-23T06:54:45.872Z,3.30
2018-11-23T06:56:54.903Z,3.19
2018-11-23T06:59:04.379Z,3.14
2018-11-23T07:01:13.599Z,3.22
2018-11-23T07:03:22.718Z,3.21
2018-11-23T07:05:32.365Z,3.16
2018-11-23T07:07:41.488Z,3.17
2018-11-23T07:09:50.596Z,3.15
2018-11-23T07:12:00.099Z,3.34
2018-11-23T07:14:08.347Z,3.24
2018-11-23T07:16:11.677Z,3.19
2018-11-23T07:18:14.720Z,3.23
2018-11-23T07:20:17.696Z,3.16
2018-11-23T07:22:20.839Z,3.28
2018-11-23T07:24:24.010Z,3.34
2018-11-23T07:26:26.967Z,3.36
2018-11-23T07:28:29.932Z,3.43
2018-11-23T07:30:32.925Z,3.27
2018-11-23T07:32:35.944Z,3.46
2018-11-23T07:34:39.100Z,3.43
2018-11-23T07:36:42.176Z,3.50
2018-11-23T07:38:45.198Z,3.41
2018-11-23T07:41:05.478Z,3.53
2018-11-23T07:43:08.999Z,3.60
2018-11-23T07:45:11.964Z,3.66
2018-11-23T07:47:15.177Z,3.49
2018-11-23T07:49:18.195Z,3.40
2018-11-23T07:51:21.188Z,3.35
2018-11-23T07:53:24.241Z,3.38
2018-11-23T07:55:27.635Z,3.51
2018-11-23T07:57:30.653Z,3.42
2018-11-23T07:59:33.997Z,3.40
2018-11-23T08:01:37.420Z,3.59
2018-11-23T08:03:40.450Z,3.57
2018-11-23T08:05:43.468Z,3.40
2018-11-23T08:07:46.522Z,3.52
2018-11-23T08:09:49.564Z,3.57
2018-11-23T08:11:53.055Z,3.58
2018-11-23T08:13:56.512Z,3.44
2018-11-23T08:15:59.644Z,3.47
2018-11-23T08:18:02.630Z,3.58
2018-11-23T08:20:07.295Z,3.76
2018-11-23T08:22:10.465Z,3.55
2018-11-23T08:24:13.591Z,3.67
2018-11-23T08:26:16.958Z,3.78
2018-11-23T08:28:20.004Z,3.69
2018-11-23T08:30:24.483Z,3.77
2018-11-23T08:32:27.904Z,3.72
2018-11-23T08:34:30.900Z,3.72
2018-11-23T08:36:33.939Z,3.87
2018-11-23T08:38:36.990Z,3.74
2018-11-23T08:40:40.027Z,3.83
2018-11-23T08:42:43.704Z,3.91
2018-11-23T08:44:47.201Z,3.89
2018-11-23T08:46:50.182Z,3.86
2018-11-23T08:48:53.154Z,3.99
2018-11-23T08:50:56.391Z,3.88
2018-11-23T08:52:59.509Z,3.78
2018-11-23T08:55:02.528Z,3.92
2018-11-23T08:57:05.619Z,3.92
2018-11-23T08:59:08.657Z,3.95
2018-11-23T09:01:11.701Z,4.17
2018-11-23T09:03:14.824Z,4.07
2018-11-23T09:05:18.085Z,4.03
2018-11-23T09:07:21.263Z,4.19
2018-11-23T09:09:24.258Z,4.14
2018-11-23T09:11:27.542Z,4.01
2018-11-23T09:13:30.943Z,4.05
2018-11-23T09:15:33.884Z,4.10
2018-11-23T09:17:36.878Z,4.03
2018-11-23T09:19:39.874Z,4.15
2018-11-23T09:21:42.857Z,4.05
2018-11-23T09:23:45.849Z,4.07
2018-11-23T09:25:48.902Z,4.15
2018-11-23T09:27:51.989Z,4.11
2018-11-23T09:29:54.995Z,4.21
2018-11-23T09:31:58.140Z,4.37
2018-11-23T09:34:01.104Z,4.36
2018-11-23T09:36:04.192Z,4.20
2018-11-23T09:38:07.191Z,4.23
2018-11-23T09:40:13.196Z,4.31
2018-11-23T09:42:16.224Z,4.29
2018-11-23T09:44:19.312Z,4.43
2018-11-23T09:46:22.337Z,4.56
2018-11-23T09:48:25.297Z,4.36
2018-11-23T09:50:28.600Z,4.50
2018-11-23T09:52:31.603Z,4.38
2018-11-23T09:54:34.575Z,4.33
2018-11-23T09:56:37.573Z,4.54
2018-11-23T09:58:43.630Z,4.55
2018-11-23T10:00:43.648Z,4.53
2018-11-23T10:02:47.827Z,4.39
2018-11-23T10:04:51.274Z,4.54
2018-11-23T10:06:54.327Z,4.62
2018-11-23T10:08:57.326Z,4.68
2018-11-23T10:11:00.463Z,4.66
2018-11-23T10:13:03.452Z,4.69
2018-11-23T10:15:07.957Z,4.71
2018-11-23T10:17:11.171Z,4.65
2018-11-23T10:19:28.216Z,4.55
2018-11-23T10:21:31.229Z,4.72
2018-11-23T10:23:34.224Z,4.75
2018-11-23T10:25:37.250Z,4.73
2018-11-23T10:27:40.981Z,4.92
2018-11-23T10:29:43.955Z,4.90
2018-11-23T10:31:47.353Z,4.83
2018-11-23T10:33:50.918Z,4.92
2018-11-23T10:35:53.939Z,4.91
2018-11-23T10:37:58.441Z,4.88
2018-11-23T10:40:01.605Z,4.86
2018-11-23T10:42:04.789Z,4.84
2018-11-23T10:44:07.755Z,4.97
2018-11-23T10:46:10.787Z,4.91
2018-11-23T10:48:13.849Z,5.12
2018-11-23T10:50:19.151Z,5.05
2018-11-23T10:52:22.221Z,5.24
2018-11-23T10:54:25.277Z,5.03
2018-11-23T10:56:28.284Z,5.14
2018-11-23T10:58:31.273Z,5.38
2018-11-23T11:00:40.071Z,5.26
2018-11-23T11:02:44.299Z,5.34
2018-11-23T11:04:57.777Z,5.22
2018-11-23T11:07:06.813Z,5.36
2018-11-23T11:09:10.587Z,5.27
2018-11-23T11:11:14.051Z,5.40
2018-11-23T11:13:16.913Z,5.49
2018-11-23T11:15:20.039Z,5.43
2018-11-23T11:17:23.079Z,5.55
2018-11-23T11:19:26.100Z,5.54
2018-11-23T11:21:29.101Z,5.55
2018-11-23T11:23:38.279Z,5.63
2018-11-23T11:25:41.278Z,5.42
2018-11-23T11:27:44.260Z,5.38
2018-11-23T11:29:48.036Z,5.36
2018-11-23T11:31:51.043Z,5.36
2018-11-23T11:33:53.991Z,5.43
2018-11-23T11:35:57.009Z,5.41
2018-11-23T11:38:00.147Z,5.35
2018-11-23T11:40:03.199Z,5.38
2018-11-23T11:42:06.397Z,5.44
2018-11-23T11:44:09.455Z,5.49
2018-11-23T11:46:12.683Z,5.49
2018-11-23T11:48:15.829Z,5.66
2018-11-23T11:50:18.998Z,5.43
2018-11-23T11:52:21.977Z,5.63
2018-11-23T11:54:24.936Z,5.72
2018-11-23T11:56:27.968Z,5.77
2018-11-23T11:58:30.991Z,5.70
2018-11-23T12:00:34.383Z,5.71
2018-11-23T12:02:37.796Z,5.87
2018-11-23T12:04:40.809Z,5.96
2018-11-23T12:06:43.809Z,5.95
2018-11-23T12:08:46.823Z,5.95
2018-11-23T12:10:49.787Z,5.82
2018-11-23T12:12:52.871Z,6.02
2018-11-23T12:14:56.171Z,5.86
2018-11-23T12:16:59.163Z,6.00
2018-11-23T12:19:02.265Z,5.95
2018-11-23T12:21:05.408Z,6.12
2018-11-23T12:23:08.602Z,5.91
2018-11-23T12:25:11.640Z,5.84
2018-11-23T12:27:14.713Z,5.86
2018-11-23T12:29:17.720Z,5.90
2018-11-23T12:31:20.827Z,5.86
2018-11-23T12:33:23.831Z,5.96
2018-11-23T12:35:26.757Z,6.19
2018-11-23T12:37:29.720Z,6.00
2018-11-23T12:39:33.111Z,5.98
2018-11-23T12:41:36.096Z,5.90
2018-11-23T12:43:39.049Z,6.06
2018-11-23T12:45:42.368Z,6.11
2018-11-23T12:47:45.539Z,6.25
2018-11-23T12:49:48.580Z,5.98
2018-11-23T12:51:51.571Z,6.13
2018-11-23T12:53:54.564Z,6.00
2018-11-23T12:55:57.555Z,5.96
2018-11-23T12:58:00.516Z,5.94
2018-11-23T13:00:04.973Z,6.22
2018-11-23T13:02:07.956Z,6.11
2018-11-23T13:04:11.093Z,5.97
2018-11-23T13:06:14.113Z,6.05
2018-11-23T13:08:17.253Z,6.20
2018-11-23T13:10:20.618Z,6.03
2018-11-23T13:12:23.825Z,6.04
2018-11-23T13:14:26.925Z,6.15
2018-11-23T13:16:30.051Z,6.20
2018-11-23T13:18:33.154Z,6.13
2018-11-23T13:20:36.210Z,5.99
2018-11-23T13:22:39.506Z,6.20
2018-11-23T13:24:42.446Z,6.13
2018-11-23T13:26:45.399Z,6.25
2018-11-23T13:28:48.328Z,6.34
2018-11-23T13:30:51.457Z,6.16
2018-11-23T13:32:54.541Z,6.13
2018-11-23T13:34:57.747Z,6.00
2018-11-23T13:37:00.881Z,6.15
2018-11-23T13:39:06.145Z,6.12
2018-11-23T13:41:09.179Z,6.18
2018-11-23T13:43:12.330Z,6.12
2018-11-23T13:45:20.109Z,5.99
2018-11-23T13:47:23.016Z,6.14
2018-11-23T13:49:26.195Z,6.03
2018-11-23T13:51:29.232Z,6.18
2018-11-23T13:53:32.217Z,6.10
2018-11-23T13:55:35.165Z,6.14
2018-11-23T13:57:38.466Z,6.16
2018-11-23T13:59:41.578Z,5.98
2018-11-23T14:01:44.668Z,6.12
2018-11-23T14:03:47.849Z,6.12
2018-11-23T14:05:50.986Z,5.97
2018-11-23T14:07:55.597Z,6.01
2018-11-23T14:09:58.810Z,6.01
2018-11-23T14:12:01.991Z,5.91
2018-11-23T14:14:05.338Z,6.04
2018-11-23T14:16:08.818Z,5.77
2018-11-23T14:18:11.833Z,5.87
2018-11-23T14:20:15.749Z,5.89
2018-11-23T14:22:19.109Z,5.97
2018-11-23T14:24:22.106Z,6.08
2018-11-23T14:26:25.162Z,6.03
2018-11-23T14:28:28.353Z,5.92
2018-11-23T14:30:32.817Z,5.90
2018-11-23T14:32:35.914Z,6.10
2018-11-23T14:34:39.042Z,5.95
2018-11-23T14:36:42.178Z,6.19
2018-11-23T14:38:45.319Z,6.03
2018-11-23T14:40:48.450Z,6.11
2018-11-23T14:42:52.636Z,5.81
2018-11-23T14:44:55.786Z,5.78
2018-11-23T14:46:59.314Z,5.67
2018-11-23T14:49:02.462Z,5.72
2018-11-23T14:51:05.621Z,5.76
2018-11-23T14:53:09.068Z,5.90
2018-11-23T14:55:12.282Z,5.82
2018-11-23T14:57:15.337Z,5.78
2018-11-23T14:59:18.814Z,5.83
2018-11-23T15:01:21.837Z,5.65
2018-11-23T15:03:24.763Z,5.82
2018-11-23T15:05:28.291Z,5.59
2018-11-23T15:07:31.246Z,5.72
2018-11-23T15:09:34.290Z,5.65
2018-11-23T15:11:37.825Z,5.72
2018-11-23T15:13:40.893Z,5.73
2018-11-23T15:15:43.974Z,5.78
2018-11-23T15:17:47.976Z,5.70
2018-11-23T15:19:51.119Z,5.68
2018-11-23T15:21:54.102Z,5.64
2018-11-23T15:23:57.329Z,5.53
2018-11-23T15:26:00.076Z,5.53
2018-11-23T15:28:03.172Z,5.51
2018-11-23T15:30:14.691Z,5.46
2018-11-23T15:32:18.148Z,5.35
2018-11-23T15:34:21.218Z,5.47
2018-11-23T15:36:24.147Z,5.57
2018-11-23T15:38:27.086Z,5.35
2018-11-23T15:40:31.606Z,5.49
2018-11-23T15:42:34.668Z,5.37
2018-11-23T15:44:37.858Z,5.37
2018-11-23T15:46:40.875Z,5.42
2018-11-23T15:48:43.769Z,5.43
2018-11-23T15:50:46.867Z,5.40
2018-11-23T15:52:50.353Z,5.50
2018-11-23T15:54:53.249Z,5.50
2018-11-23T15:56:56.229Z,5.48
2018-11-23T15:58:59.338Z,5.33
2018-11-23T16:01:02.565Z,5.43
2018-11-23T16:03:07.861Z,5.42
2018-11-23T16:05:11.928Z,5.26
2018-11-23T16:07:14.997Z,5.36
2018-11-23T16:09:17.950Z,5.37
2018-11-23T16:11:20.857Z,5.27
2018-11-23T16:13:23.803Z,5.27
2018-11-23T16:15:30.502Z,5.13
2018-11-23T16:17:33.413Z,5.11
2018-11-23T16:19:36.494Z,5.14
2018-11-23T16:21:39.507Z,5.16
2018-11-23T16:23:42.599Z,5.12
2018-11-23T16:25:46.265Z,5.09
2018-11-23T16:27:50.968Z,4.93
2018-11-23T16:29:54.137Z,5.12
2018-11-23T16:31:57.914Z,5.16
2018-11-23T16:34:00.878Z,5.11
2018-11-23T16:36:03.814Z,5.17
2018-11-23T16:38:10.201Z,5.10
2018-11-23T16:40:14.632Z,5.06
2018-11-23T16:42:17.682Z,5.17
2018-11-23T16:44:20.621Z,5.00
2018-11-23T16:46:23.554Z,5.25
2018-11-23T16:48:26.481Z,5.16
2018-11-23T16:50:29.930Z,5.13
2018-11-23T16:52:33.066Z,5.16
2018-11-23T16:54:36.138Z,4.94
2018-11-23T16:56:43.707Z,5.09
2018-11-23T16:58:46.806Z,5.02
2018-11-23T17:00:49.922Z,5.06
2018-11-23T17:02:54.122Z,5.15
2018-11-23T17:04:57.154Z,5.18
2018-11-23T17:07:00.108Z,5.17
2018-11-23T17:09:03.698Z,5.13
2018-11-23T17:11:06.621Z,5.05
2018-11-23T17:13:09.581Z,5.17
2018-11-23T17:15:15.052Z,5.13
2018-11-23T17:17:18.086Z,5.26
2018-11-23T17:19:21.167Z,5.20
2018-11-23T17:21:24.125Z,5.16
2018-11-23T17:23:27.069Z,5.23
2018-11-23T17:25:31.373Z,5.18
2018-11-23T17:27:34.377Z,5.26
2018-11-23T17:29:37.374Z,5.15
2018-11-23T17:31:40.477Z,5.30
2018-11-23T17:33:43.549Z,5.37
2018-11-23T17:35:46.650Z,5.37
2018-11-23T17:37:49.708Z,5.25
2018-11-23T17:39:52.710Z,5.46
2018-11-23T17:41:55.802Z,5.27
2018-11-23T17:43:58.910Z,5.17
2018-11-23T17:46:01.979Z,5.24
2018-11-23T17:48:05.686Z,5.19
2018-11-23T17:50:12.030Z,5.19
2018-11-23T17:52:14.985Z,5.23
2018-11-23T17:54:17.901Z,5.16
2018-11-23T17:56:20.886Z,5.05
2018-11-23T17:58:23.906Z,5.10
2018-11-23T18:00:38.491Z,4.97
2018-11-23T18:02:34.084Z,5.17
2018-11-23T18:04:37.146Z,4.97
2018-11-23T18:06:40.633Z,5.12
2018-11-23T18:08:43.663Z,4.86
2018-11-23T18:10:46.591Z,4.92
2018-11-23T18:12:49.907Z,4.85
2018-11-23T18:14:52.869Z,4.73
2018-11-23T18:16:55.781Z,4.52
2018-11-23T18:18:58.906Z,4.56
2018-11-23T18:21:02.017Z,4.44
2018-11-23T18:23:05.967Z,4.44
2018-11-23T18:25:12.526Z,4.48
2018-11-23T18:27:15.522Z,4.34
2018-11-23T18:29:18.411Z,4.46
2018-11-23T18:31:21.410Z,4.48
2018-11-23T18:33:24.366Z,4.30
2018-11-23T18:35:27.414Z,4.12
2018-11-23T18:37:30.496Z,4.04
2018-11-23T18:39:33.441Z,3.96
2018-11-23T18:41:36.818Z,3.75
2018-11-23T18:43:39.879Z,3.84
2018-11-23T18:45:42.801Z,3.92
2018-11-23T18:47:45.797Z,3.77
2018-11-23T18:49:48.878Z,3.69
2018-11-23T18:51:51.894Z,3.73
2018-11-23T18:53:54.974Z,3.68
2018-11-23T18:55:59.520Z,3.61
2018-11-23T18:58:02.696Z,3.66
2018-11-23T19:00:10.301Z,3.72
2018-11-23T19:02:13.309Z,3.55
2018-11-23T19:04:16.278Z,3.38
2018-11-23T19:06:19.453Z,3.53
2018-11-23T19:08:22.566Z,3.56
2018-11-23T19:10:25.703Z,3.39
2018-11-23T19:12:28.812Z,3.40
2018-11-23T19:14:38.047Z,3.56
2018-11-23T19:16:47.187Z,3.48
2018-11-23T19:18:56.410Z,3.41
2018-11-23T19:21:05.712Z,3.51
2018-11-23T19:23:14.835Z,3.38
2018-11-23T19:25:24.076Z,3.32
2018-11-23T19:27:33.468Z,3.34
2018-11-23T19:29:42.735Z,3.26
2018-11-23T19:31:51.943Z,3.24
2018-11-23T19:34:01.061Z,3.16
2018-11-23T19:36:10.378Z,3.28
2018-11-23T19:38:19.503Z,3.27
2018-11-23T19:40:29.059Z,3.24
2018-11-23T19:42:38.279Z,3.17
2018-11-23T19:44:48.048Z,3.17
2018-11-23T19:46:57.107Z,3.25
2018-11-23T19:49:06.254Z,3.26
2018-11-23T19:51:16.328Z,3.22
2018-11-23T19:53:24.451Z,3.24
2018-11-23T19:55:33.520Z,3.24
2018-11-23T19:57:42.791Z,3.27
2018-11-23T19:59:51.948Z,3.25
2018-11-23T20:02:01.162Z,3.18
2018-11-23T20:04:10.357Z,3.05
2018-11-23T20:06:19.754Z,2.96
2018-11-23T20:08:28.787Z,2.91
2018-11-23T20:10:37.931Z,2.96
2018-11-23T20:12:48.848Z,2.98
2018-11-23T20:14:58.127Z,3.04
2018-11-23T20:17:07.215Z,3.03
2018-11-23T20:19:16.508Z,3.15
2018-11-23T20:21:25.720Z,3.17
2018-11-23T20:23:35.000Z,3.09
2018-11-23T20:25:44.131Z,3.01
2018-11-23T20:27:53.618Z,2.97
2018-11-23T20:30:03.208Z,2.94
2018-11-23T20:32:12.474Z,3.07
2018-11-23T20:34:21.864Z,3.03
2018-11-23T20:36:31.347Z,3.01
2018-11-23T20:38:40.758Z,3.00
2018-11-23T20:40:49.884Z,3.09
2018-11-23T20:42:59.155Z,3.10
2018-11-23T20:45:10.456Z,3.07
2018-11-23T20:47:19.683Z,3.19
2018-11-23T20:49:28.869Z,3.09
2018-11-23T20:51:38.023Z,3.06
2018-11-23T20:53:47.051Z,3.08
2018-11-23T20:55:56.260Z,3.04
2018-11-23T20:58:05.696Z,3.12
2018-11-23T21:00:17.382Z,3.06
2018-11-23T21:02:26.579Z,3.07
2018-11-23T21:04:35.662Z,3.04
2018-11-23T21:06:44.907Z,3.11
2018-11-23T21:08:54.239Z,3.15
2018-11-23T21:11:03.590Z,3.04
2018-11-23T21:13:12.752Z,3.04
2018-11-23T21:15:24.378Z,3.07
2018-11-23T21:17:33.451Z,3.15
2018-11-23T21:19:42.672Z,3.05
2018-11-23T21:21:51.821Z,3.01
2018-11-23T21:24:00.869Z,2.84
2018-11-23T21:26:10.322Z,2.92
2018-11-23T21:28:19.557Z,2.95
2018-11-23T21:30:28.742Z,3.01
2018-11-23T21:32:38.208Z,3.07
2018-11-23T21:34:47.478Z,2.74
2018-11-23T21:36:56.636Z,2.74
2018-11-23T21:39:13.713Z,2.71
2018-11-23T21:41:18.534Z,2.76
2018-11-23T21:43:28.000Z,2.69
2018-11-23T21:45:37.094Z,2.79
2018-11-23T21:47:46.199Z,2.70
2018-11-23T21:49:55.248Z,2.63
2018-11-23T21:52:04.900Z,2.81
2018-11-23T21:54:14.061Z,2.79
2018-11-23T21:56:23.219Z,2.74
2018-11-23T22:00:46.419Z,2.76
2018-11-23T22:02:55.686Z,2.81
2018-11-23T22:05:05.528Z,2.63
2018-11-23T22:07:14.512Z,2.70
2018-11-23T22:09:23.623Z,2.61
2018-11-23T22:11:32.743Z,2.58
2018-11-23T22:13:42.032Z,2.56
2018-11-23T22:15:51.367Z,2.48
2018-11-23T22:18:00.528Z,2.44
2018-11-23T22:20:11.502Z,2.51
2018-11-23T22:22:20.559Z,2.48
2018-11-23T22:24:29.775Z,2.54
2018-11-23T22:26:38.807Z,2.52
2018-11-23T22:28:47.884Z,2.30
2018-11-23T22:30:56.992Z,2.41
2018-11-23T22:33:06.204Z,2.35
2018-11-23T22:35:15.444Z,2.26
2018-11-23T22:37:24.664Z,2.39
2018-11-23T22:39:34.282Z,2.43
2018-11-23T22:41:43.573Z,2.40
2018-11-23T22:43:52.675Z,2.48
2018-11-23T22:46:01.784Z,2.44
2018-11-23T22:48:10.982Z,2.43
2018-11-23T22:50:22.031Z,2.46
2018-11-23T22:52:31.183Z,2.41
2018-11-23T22:54:40.479Z,2.57
2018-11-23T22:56:49.509Z,2.30
2018-11-23T22:58:59.282Z,2.33
2018-11-23T23:01:08.636Z,2.42
2018-11-23T23:03:17.704Z,2.35
2018-11-23T23:05:27.190Z,2.46
2018-11-23T23:07:36.323Z,2.51
2018-11-23T23:09:45.457Z,2.51
2018-11-23T23:11:54.565Z,2.31
2018-11-23T23:14:03.873Z,2.20
2018-11-23T23:16:13.031Z,2.32
2018-11-23T23:18:22.132Z,2.48
2018-11-23T23:20:31.278Z,2.35
2018-11-23T23:22:40.537Z,2.17
2018-11-23T23:24:49.679Z,2.29
2018-11-23T23:26:58.844Z,2.31
2018-11-23T23:29:08.039Z,2.23
2018-11-23T23:31:17.406Z,2.31
2018-11-23T23:33:26.725Z,2.27
2018-11-23T23:35:36.009Z,2.25
2018-11-23T23:37:45.407Z,2.23
2018-11-23T23:39:54.732Z,2.25
2018-11-23T23:42:03.897Z,2.39
2018-11-23T23:44:12.880Z,2.35
2018-11-23T23:46:22.304Z,2.39
2018-11-23T23:48:31.260Z,2.31
2018-11-23T23:50:40.484Z,2.14
2018-11-23T23:52:50.773Z,2.28
2018-11-23T23:54:59.935Z,2.48
2018-11-23T23:57:09.078Z,2.42
2018-11-23T23:59:18.204Z,2.26
